Unbenanntes Dokument
Flugplatz Bielefeld Platzwetter

 

Aktuelles Platzwetter am Flugplatz Bielefeld EDLI

19.07.19 ,14:16 Uhr

METAR EDLI 191415Z 25004KT 9999 ///094 23/12 Q1014

 

Windwerte

 

Wolkenuntergrenzen

Wind aktuell:270 ° mit 4 kt
Wind 10 min Extrem:
190 ° bis 300 ° mit 2 kt bis 6 kt
Seitenwindkomponente: 0.4 kt
Wolkengrenze 1: 9400 ft
Wolkengrenze 2:
Wolkengrenze 3:

Webcam

Temperatur

       

Sichtweite:

20.000 Meter

23.9 °C
Taupunkt: 12.4 °C
Luftfeuchtigkeit: 48 %

Luftdruck:

QNH: 1014 hPa (29.94 in Hg)
QFE: 997 hPa (29.44 in Hg)

Diese Daten werden automatisch ermittelt bzw. übertragen und sind nicht geprüft. Für die Richtigkeit wird daher keine Gewähr übernommen. Sie ersetzen im übrigen nicht die Flugwetterberatung. Alle Zeitangaben beziehen sich auf UTC. Die Seite wird einmal die Minute aktualisiert! Sollten Sie ein ältere Seite haben, so drücken Sie bitte auf den Reload Button Ihres Browsers!